createdAt,value
2023-05-04T00:00:31.763Z,6.8
2023-05-04T00:20:36.854Z,6.5
2023-05-04T00:30:39.211Z,6.4
2023-05-04T00:40:41.089Z,6.4
2023-05-04T00:50:43.661Z,6.2
2023-05-04T01:00:46.139Z,6.2
2023-05-04T01:10:48.061Z,6.1
2023-05-04T01:20:50.417Z,6
2023-05-04T01:30:52.721Z,6
2023-05-04T01:40:55.069Z,5.9
2023-05-04T01:50:57.361Z,5.8
2023-05-04T02:01:00.027Z,5.7
2023-05-04T02:11:01.879Z,5.6
2023-05-04T02:21:04.482Z,5.5
2023-05-04T02:31:06.305Z,5.4
2023-05-04T02:41:08.325Z,5.3
2023-05-04T02:51:10.183Z,5.3
2023-05-04T03:21:15.759Z,5.1
2023-05-04T03:31:18.085Z,5.1
2023-05-04T03:51:22.610Z,4.9
2023-05-04T04:01:24.855Z,4.8
2023-05-04T04:11:27.435Z,4.7
2023-05-04T04:21:30.062Z,4.6
2023-05-04T04:31:32.612Z,4.5
2023-05-04T04:41:34.596Z,4.6
2023-05-04T04:51:36.473Z,4.7
2023-05-04T05:01:39.090Z,4.7
2023-05-04T05:11:41.241Z,4.9
2023-05-04T05:21:43.742Z,5
2023-05-04T05:31:45.388Z,5.4
2023-05-04T05:41:47.151Z,5.9
2023-05-04T05:51:49.364Z,6.4
2023-05-04T06:01:51.160Z,6.9
2023-05-04T06:21:55.336Z,7.8
2023-05-04T06:31:57.201Z,8.2
2023-05-04T06:41:59.123Z,8.5
2023-05-04T06:52:00.771Z,8.9
2023-05-04T07:02:03.402Z,9.4
2023-05-04T07:12:05.036Z,9.9
2023-05-04T07:22:07.013Z,10.3
2023-05-04T07:32:09.378Z,10.6
2023-05-04T07:42:11.088Z,11.2
2023-05-04T07:52:13.678Z,11.9
2023-05-04T08:02:15.694Z,12.1
2023-05-04T08:12:17.368Z,12.5
2023-05-04T08:22:19.365Z,13.2
2023-05-04T08:32:21.220Z,13.6
2023-05-04T08:42:23.511Z,14
2023-05-04T08:52:25.289Z,14.6
2023-05-04T09:12:30.170Z,15.4
2023-05-04T09:22:31.845Z,15.9
2023-05-04T09:32:33.972Z,16
2023-05-04T09:42:35.631Z,16.3
2023-05-04T09:52:37.433Z,16.7
2023-05-04T10:02:39.776Z,17.3
2023-05-04T10:12:41.673Z,17.7
2023-05-04T10:22:43.908Z,18
2023-05-04T10:32:46.237Z,18.4
2023-05-04T10:42:48.720Z,18.6
2023-05-04T10:52:51.012Z,18.7
2023-05-04T11:02:52.853Z,19.3
2023-05-04T11:12:55.248Z,19.8
2023-05-04T11:22:56.961Z,19.6
2023-05-04T11:43:01.947Z,20.9
2023-05-04T11:53:04.219Z,21.1
2023-05-04T12:03:06.772Z,21.6
2023-05-04T12:13:09.180Z,21.6
2023-05-04T12:23:11.459Z,22.2
2023-05-04T12:33:13.264Z,21.3
2023-05-04T12:43:15.707Z,22.5
2023-05-04T12:53:17.837Z,22.6
2023-05-04T13:03:20.454Z,22.5
2023-05-04T13:13:22.380Z,22.6
2023-05-04T13:23:24.527Z,23.1
2023-05-04T13:33:29.755Z,22.2
2023-05-04T13:43:28.948Z,22.2
2023-05-04T13:53:31.275Z,21.9
2023-05-04T14:03:33.836Z,21.9
2023-05-04T14:13:36.454Z,22
2023-05-04T14:23:38.321Z,22.1
2023-05-04T14:33:40.895Z,21.5
2023-05-04T14:43:42.625Z,21.7
2023-05-04T14:53:44.273Z,22.1
2023-05-04T15:03:46.799Z,21.4
2023-05-04T15:13:48.311Z,21.9
2023-05-04T15:23:50.024Z,21.8
2023-05-04T15:33:52.379Z,22
2023-05-04T15:43:54.376Z,21.5
2023-05-04T15:53:56.125Z,21.5
2023-05-04T16:03:58.113Z,21.5
2023-05-04T16:14:00.597Z,21.4
2023-05-04T16:24:03.217Z,21.3
2023-05-04T16:34:05.670Z,21.2
2023-05-04T16:44:08.145Z,21.3
2023-05-04T17:04:12.861Z,21.2
2023-05-04T17:14:14.901Z,20.9
2023-05-04T17:24:16.623Z,20.8
2023-05-04T17:44:21.471Z,20.4
2023-05-04T17:54:23.820Z,20.2
2023-05-04T18:04:25.703Z,19.8
2023-05-04T18:14:27.540Z,19.7
2023-05-04T18:24:30.601Z,19.2
2023-05-04T18:34:31.613Z,18.9
2023-05-04T18:34:38.459Z,18.9
2023-05-04T18:44:41.063Z,18.5
2023-05-04T18:54:43.685Z,18.1
2023-05-04T19:04:45.632Z,17.8
2023-05-04T19:14:48.241Z,17.5
2023-05-04T19:24:50.651Z,17.3
2023-05-04T19:34:53.206Z,17.1
2023-05-04T19:44:55.466Z,16.9
2023-05-04T19:54:57.209Z,16.6
2023-05-04T20:04:59.014Z,16.2
2023-05-04T20:15:01.002Z,15.8
2023-05-04T20:35:05.407Z,15.2
2023-05-04T20:45:07.704Z,15
2023-05-04T20:55:09.531Z,14.7
2023-05-04T21:05:11.881Z,14.5
2023-05-04T21:15:13.658Z,14.1
2023-05-04T21:25:16.190Z,13.9
2023-05-04T21:45:20.588Z,13.3
2023-05-04T21:55:22.897Z,13.1
2023-05-04T22:05:24.626Z,12.9
2023-05-04T22:15:31.734Z,12.7
2023-05-04T22:25:29.757Z,12.6
2023-05-04T22:35:32.163Z,12.4
2023-05-04T22:45:34.263Z,12.6
2023-05-04T22:55:36.446Z,12.8
2023-05-04T23:05:38.446Z,12.8
2023-05-04T23:25:42.649Z,13
2023-05-04T23:35:44.542Z,12.9
2023-05-04T23:45:46.822Z,12.9
2023-05-04T23:55:48.562Z,12.7
